sensor_id;sensor_type;location;lat;lon;timestamp;temperature;humidity
58993;DHT22;44782;0.000;0.000;2022-09-01T05:18:52;24.10;51.10
58993;DHT22;44782;0.000;0.000;2022-09-01T05:21:10;24.10;51.10
58993;DHT22;44782;0.000;0.000;2022-09-01T05:23:25;24.10;51.00
58993;DHT22;44782;0.000;0.000;2022-09-01T05:25:42;24.10;51.00
58993;DHT22;44782;0.000;0.000;2022-09-01T05:27:58;24.10;51.00
58993;DHT22;44782;0.000;0.000;2022-09-01T05:30:15;24.10;50.90
58993;DHT22;44782;0.000;0.000;2022-09-01T05:32:32;24.10;50.80
58993;DHT22;44782;0.000;0.000;2022-09-01T05:34:47;24.10;50.80
58993;DHT22;44782;0.000;0.000;2022-09-01T05:37:07;24.10;50.70
58993;DHT22;44782;0.000;0.000;2022-09-01T05:39:23;24.10;50.70
58993;DHT22;44782;0.000;0.000;2022-09-01T05:41:40;24.00;50.60
58993;DHT22;44782;0.000;0.000;2022-09-01T05:43:55;24.10;50.70
58993;DHT22;44782;0.000;0.000;2022-09-01T05:46:13;24.00;50.70
58993;DHT22;44782;0.000;0.000;2022-09-01T05:48:31;24.00;50.70
58993;DHT22;44782;0.000;0.000;2022-09-01T05:50:51;24.00;50.70
58993;DHT22;44782;0.000;0.000;2022-09-01T05:53:14;24.00;50.70
58993;DHT22;44782;0.000;0.000;2022-09-01T05:55:31;24.00;50.70
58993;DHT22;44782;0.000;0.000;2022-09-01T05:57:52;24.00;50.70
58993;DHT22;44782;0.000;0.000;2022-09-01T06:00:09;24.00;50.70
58993;DHT22;44782;0.000;0.000;2022-09-01T06:02:26;24.00;50.70
58993;DHT22;44782;0.000;0.000;2022-09-01T06:04:43;24.00;50.70
58993;DHT22;44782;0.000;0.000;2022-09-01T06:06:58;23.90;50.70
58993;DHT22;44782;0.000;0.000;2022-09-01T06:09:15;24.00;50.70
58993;DHT22;44782;0.000;0.000;2022-09-01T06:11:32;23.90;50.80
58993;DHT22;44782;0.000;0.000;2022-09-01T06:13:48;23.90;51.50
58993;DHT22;44782;0.000;0.000;2022-09-01T06:16:08;23.90;50.80
58993;DHT22;44782;0.000;0.000;2022-09-01T06:18:24;23.90;50.80
58993;DHT22;44782;0.000;0.000;2022-09-01T06:20:41;23.90;50.90
58993;DHT22;44782;0.000;0.000;2022-09-01T06:25:18;23.90;51.00
58993;DHT22;44782;0.000;0.000;2022-09-01T06:27:34;23.90;50.90
58993;DHT22;44782;0.000;0.000;2022-09-01T06:29:56;24.00;50.90
58993;DHT22;44782;0.000;0.000;2022-09-01T06:32:12;24.00;50.90
58993;DHT22;44782;0.000;0.000;2022-09-01T06:34:28;24.00;50.90
58993;DHT22;44782;0.000;0.000;2022-09-01T06:36:45;24.00;50.80
58993;DHT22;44782;0.000;0.000;2022-09-01T06:39:02;24.00;51.40
58993;DHT22;44782;0.000;0.000;2022-09-01T06:41:20;24.00;50.70
58993;DHT22;44782;0.000;0.000;2022-09-01T06:43:36;24.00;50.60
58993;DHT22;44782;0.000;0.000;2022-09-01T06:45:53;24.00;50.60
58993;DHT22;44782;0.000;0.000;2022-09-01T06:48:09;24.10;50.60
58993;DHT22;44782;0.000;0.000;2022-09-01T06:50:30;24.10;50.50
58993;DHT22;44782;0.000;0.000;2022-09-01T06:52:45;24.00;50.50
58993;DHT22;44782;0.000;0.000;2022-09-01T06:55:01;24.10;50.60
58993;DHT22;44782;0.000;0.000;2022-09-01T06:57:17;24.10;50.50
58993;DHT22;44782;0.000;0.000;2022-09-01T06:59:33;24.00;50.50
58993;DHT22;44782;0.000;0.000;2022-09-01T07:01:49;24.10;50.50
58993;DHT22;44782;0.000;0.000;2022-09-01T07:04:09;24.10;50.50
58993;DHT22;44782;0.000;0.000;2022-09-01T07:06:25;24.00;50.40
58993;DHT22;44782;0.000;0.000;2022-09-01T07:08:44;24.10;50.50
58993;DHT22;44782;0.000;0.000;2022-09-01T07:11:05;24.10;50.40
58993;DHT22;44782;0.000;0.000;2022-09-01T07:13:21;24.10;50.40
58993;DHT22;44782;0.000;0.000;2022-09-01T07:15:40;24.10;50.30
58993;DHT22;44782;0.000;0.000;2022-09-01T07:17:57;24.10;50.30
58993;DHT22;44782;0.000;0.000;2022-09-01T07:20:13;24.10;50.20
58993;DHT22;44782;0.000;0.000;2022-09-01T07:22:30;24.20;50.30
58993;DHT22;44782;0.000;0.000;2022-09-01T07:24:45;24.20;50.30
58993;DHT22;44782;0.000;0.000;2022-09-01T07:27:01;24.20;50.20
58993;DHT22;44782;0.000;0.000;2022-09-01T07:29:17;24.20;50.20
58993;DHT22;44782;0.000;0.000;2022-09-01T07:31:39;24.20;50.20
58993;DHT22;44782;0.000;0.000;2022-09-01T07:33:58;24.20;50.00
58993;DHT22;44782;0.000;0.000;2022-09-01T07:36:15;24.20;50.10
58993;DHT22;44782;0.000;0.000;2022-09-01T07:38:31;24.20;50.10
58993;DHT22;44782;0.000;0.000;2022-09-01T07:40:47;24.30;50.20
58993;DHT22;44782;0.000;0.000;2022-09-01T07:43:06;24.30;50.10
58993;DHT22;44782;0.000;0.000;2022-09-01T07:45:22;24.30;50.10
58993;DHT22;44782;0.000;0.000;2022-09-01T07:47:40;24.30;50.20
58993;DHT22;44782;0.000;0.000;2022-09-01T07:49:57;24.30;50.10
58993;DHT22;44782;0.000;0.000;2022-09-01T07:52:14;24.30;50.00
58993;DHT22;44782;0.000;0.000;2022-09-01T07:54:30;24.30;50.00
58993;DHT22;44782;0.000;0.000;2022-09-01T07:56:48;24.30;50.00
58993;DHT22;44782;0.000;0.000;2022-09-01T07:59:04;24.30;50.10
58993;DHT22;44782;0.000;0.000;2022-09-01T08:01:22;24.30;50.00
58993;DHT22;44782;0.000;0.000;2022-09-01T08:03:39;24.30;49.90
58993;DHT22;44782;0.000;0.000;2022-09-01T08:06:00;24.30;49.90
58993;DHT22;44782;0.000;0.000;2022-09-01T08:08:19;24.30;49.90
58993;DHT22;44782;0.000;0.000;2022-09-01T08:10:40;24.30;49.80
58993;DHT22;44782;0.000;0.000;2022-09-01T08:12:55;24.40;49.80
58993;DHT22;44782;0.000;0.000;2022-09-01T08:15:12;24.40;49.90
58993;DHT22;44782;0.000;0.000;2022-09-01T08:17:27;24.40;49.80
58993;DHT22;44782;0.000;0.000;2022-09-01T08:19:43;24.40;49.80
58993;DHT22;44782;0.000;0.000;2022-09-01T08:22:01;24.40;49.80
58993;DHT22;44782;0.000;0.000;2022-09-01T08:24:17;24.40;49.80
58993;DHT22;44782;0.000;0.000;2022-09-01T08:26:33;24.40;49.80
58993;DHT22;44782;0.000;0.000;2022-09-01T08:28:49;24.40;49.70
58993;DHT22;44782;0.000;0.000;2022-09-01T08:31:10;24.40;49.70
58993;DHT22;44782;0.000;0.000;2022-09-01T08:33:26;24.50;49.70
58993;DHT22;44782;0.000;0.000;2022-09-01T08:35:45;24.40;49.70
58993;DHT22;44782;0.000;0.000;2022-09-01T08:38:01;24.50;49.70
58993;DHT22;44782;0.000;0.000;2022-09-01T08:40:19;24.50;49.70
58993;DHT22;44782;0.000;0.000;2022-09-01T08:42:53;24.50;49.60
58993;DHT22;44782;0.000;0.000;2022-09-01T08:45:50;24.50;49.50
58993;DHT22;44782;0.000;0.000;2022-09-01T08:48:16;24.50;49.30
58993;DHT22;44782;0.000;0.000;2022-09-01T08:50:33;24.50;49.60
58993;DHT22;44782;0.000;0.000;2022-09-01T08:53:28;24.50;49.60
58993;DHT22;44782;0.000;0.000;2022-09-01T08:55:49;24.50;49.30
58993;DHT22;44782;0.000;0.000;2022-09-01T08:58:07;24.50;49.50
58993;DHT22;44782;0.000;0.000;2022-09-01T09:00:29;24.50;49.60
58993;DHT22;44782;0.000;0.000;2022-09-01T09:11:03;24.50;49.40
58993;DHT22;44782;0.000;0.000;2022-09-01T09:14:00;24.50;49.30
58993;DHT22;44782;0.000;0.000;2022-09-01T09:16:46;24.50;49.30
58993;DHT22;44782;0.000;0.000;2022-09-01T09:19:11;24.50;49.40
58993;DHT22;44782;0.000;0.000;2022-09-01T09:21:36;24.50;49.50
58993;DHT22;44782;0.000;0.000;2022-09-01T09:24:18;24.50;49.50
58993;DHT22;44782;0.000;0.000;2022-09-01T09:26:35;24.50;49.30
58993;DHT22;44782;0.000;0.000;2022-09-01T09:28:51;24.50;49.50
58993;DHT22;44782;0.000;0.000;2022-09-01T09:31:35;24.50;49.50
58993;DHT22;44782;0.000;0.000;2022-09-01T09:34:16;24.50;49.30
58993;DHT22;44782;0.000;0.000;2022-09-01T09:36:35;24.50;49.40
58993;DHT22;44782;0.000;0.000;2022-09-01T09:39:20;24.50;49.60
58993;DHT22;44782;0.000;0.000;2022-09-01T09:41:37;24.50;49.30
58993;DHT22;44782;0.000;0.000;2022-09-01T09:44:14;24.50;49.60
58993;DHT22;44782;0.000;0.000;2022-09-01T09:46:39;24.50;49.40
58993;DHT22;44782;0.000;0.000;2022-09-01T09:51:26;24.50;49.40
58993;DHT22;44782;0.000;0.000;2022-09-01T09:53:42;24.50;49.50
58993;DHT22;44782;0.000;0.000;2022-09-01T09:56:20;24.50;49.60
58993;DHT22;44782;0.000;0.000;2022-09-01T09:58:39;24.50;49.40
58993;DHT22;44782;0.000;0.000;2022-09-01T10:01:07;24.50;49.50
58993;DHT22;44782;0.000;0.000;2022-09-01T10:03:43;24.50;49.50
58993;DHT22;44782;0.000;0.000;2022-09-01T10:05:58;24.50;49.40
58993;DHT22;44782;0.000;0.000;2022-09-01T10:08:38;24.50;49.50
58993;DHT22;44782;0.000;0.000;2022-09-01T10:10:59;24.50;49.30
58993;DHT22;44782;0.000;0.000;2022-09-01T10:13:20;24.50;49.60
58993;DHT22;44782;0.000;0.000;2022-09-01T10:15:37;24.50;49.50
58993;DHT22;44782;0.000;0.000;2022-09-01T10:17:54;24.50;49.50
58993;DHT22;44782;0.000;0.000;2022-09-01T10:20:23;24.50;49.50
58993;DHT22;44782;0.000;0.000;2022-09-01T10:22:39;24.50;49.50
58993;DHT22;44782;0.000;0.000;2022-09-01T10:24:55;24.50;49.60
58993;DHT22;44782;0.000;0.000;2022-09-01T10:27:21;24.50;49.60
58993;DHT22;44782;0.000;0.000;2022-09-01T10:29:47;24.50;49.50
58993;DHT22;44782;0.000;0.000;2022-09-01T10:32:09;24.50;49.50
58993;DHT22;44782;0.000;0.000;2022-09-01T10:34:33;24.50;49.60
58993;DHT22;44782;0.000;0.000;2022-09-01T10:36:49;24.50;49.60
58993;DHT22;44782;0.000;0.000;2022-09-01T10:39:10;24.50;49.60
58993;DHT22;44782;0.000;0.000;2022-09-01T10:44:08;24.50;49.50
58993;DHT22;44782;0.000;0.000;2022-09-01T10:48:41;24.50;49.60
58993;DHT22;44782;0.000;0.000;2022-09-01T10:56:12;24.50;49.50
58993;DHT22;44782;0.000;0.000;2022-09-01T10:58:47;24.50;49.40
58993;DHT22;44782;0.000;0.000;2022-09-01T11:01:03;24.50;49.50
58993;DHT22;44782;0.000;0.000;2022-09-01T11:08:23;24.50;49.30
58993;DHT22;44782;0.000;0.000;2022-09-01T11:11:39;24.50;49.40
58993;DHT22;44782;0.000;0.000;2022-09-01T11:18:38;24.50;49.30
58993;DHT22;44782;0.000;0.000;2022-09-01T11:20:54;24.50;49.50
58993;DHT22;44782;0.000;0.000;2022-09-01T11:23:29;24.50;49.40
58993;DHT22;44782;0.000;0.000;2022-09-01T11:28:10;24.60;49.40
58993;DHT22;44782;0.000;0.000;2022-09-01T11:31:10;24.50;49.40
58993;DHT22;44782;0.000;0.000;2022-09-01T11:35:45;24.50;49.40
58993;DHT22;44782;0.000;0.000;2022-09-01T11:38:03;24.60;49.40
58993;DHT22;44782;0.000;0.000;2022-09-01T11:40:25;24.60;49.40
58993;DHT22;44782;0.000;0.000;2022-09-01T11:42:42;24.60;49.30
58993;DHT22;44782;0.000;0.000;2022-09-01T11:45:05;24.60;49.40
58993;DHT22;44782;0.000;0.000;2022-09-01T11:47:24;24.60;49.30
58993;DHT22;44782;0.000;0.000;2022-09-01T11:52:16;24.60;49.30
58993;DHT22;44782;0.000;0.000;2022-09-01T11:54:39;24.50;49.30
58993;DHT22;44782;0.000;0.000;2022-09-01T11:56:55;24.60;49.30
58993;DHT22;44782;0.000;0.000;2022-09-01T11:59:11;24.60;50.10
58993;DHT22;44782;0.000;0.000;2022-09-01T12:01:33;24.60;49.30
58993;DHT22;44782;0.000;0.000;2022-09-01T12:03:50;24.60;50.00
58993;DHT22;44782;0.000;0.000;2022-09-01T12:06:09;24.60;49.30
58993;DHT22;44782;0.000;0.000;2022-09-01T12:08:29;24.60;49.30
58993;DHT22;44782;0.000;0.000;2022-09-01T12:10:46;24.60;49.30
58993;DHT22;44782;0.000;0.000;2022-09-01T12:13:11;24.60;49.30
58993;DHT22;44782;0.000;0.000;2022-09-01T12:15:27;24.60;50.00
58993;DHT22;44782;0.000;0.000;2022-09-01T12:17:45;24.60;49.30
58993;DHT22;44782;0.000;0.000;2022-09-01T12:22:35;24.60;49.10
58993;DHT22;44782;0.000;0.000;2022-09-01T12:24:52;24.60;49.20
58993;DHT22;44782;0.000;0.000;2022-09-01T12:27:09;24.60;49.10
58993;DHT22;44782;0.000;0.000;2022-09-01T12:29:28;24.60;49.10
58993;DHT22;44782;0.000;0.000;2022-09-01T12:31:48;24.60;49.00
58993;DHT22;44782;0.000;0.000;2022-09-01T12:34:04;24.60;49.00
58993;DHT22;44782;0.000;0.000;2022-09-01T12:36:37;24.60;49.00
58993;DHT22;44782;0.000;0.000;2022-09-01T12:38:55;24.60;48.90
58993;DHT22;44782;0.000;0.000;2022-09-01T12:41:30;24.60;48.90
58993;DHT22;44782;0.000;0.000;2022-09-01T12:43:47;24.70;48.70
58993;DHT22;44782;0.000;0.000;2022-09-01T12:46:05;24.60;48.90
58993;DHT22;44782;0.000;0.000;2022-09-01T12:50:47;24.60;48.60
58993;DHT22;44782;0.000;0.000;2022-09-01T12:53:14;24.60;48.70
58993;DHT22;44782;0.000;0.000;2022-09-01T12:55:35;24.70;48.70
58993;DHT22;44782;0.000;0.000;2022-09-01T12:57:56;24.70;48.80
58993;DHT22;44782;0.000;0.000;2022-09-01T13:02:44;24.60;49.00
58993;DHT22;44782;0.000;0.000;2022-09-01T13:05:29;24.70;48.60
58993;DHT22;44782;0.000;0.000;2022-09-01T13:07:46;24.70;48.60
58993;DHT22;44782;0.000;0.000;2022-09-01T13:10:02;24.60;48.70
58993;DHT22;44782;0.000;0.000;2022-09-01T13:12:19;24.70;48.90
58993;DHT22;44782;0.000;0.000;2022-09-01T13:14:35;24.70;48.80
58993;DHT22;44782;0.000;0.000;2022-09-01T13:16:51;24.70;48.80
58993;DHT22;44782;0.000;0.000;2022-09-01T13:19:07;24.70;48.80
58993;DHT22;44782;0.000;0.000;2022-09-01T13:21:22;24.70;48.80
58993;DHT22;44782;0.000;0.000;2022-09-01T13:23:38;24.70;48.80
58993;DHT22;44782;0.000;0.000;2022-09-01T13:25:54;24.70;48.80
58993;DHT22;44782;0.000;0.000;2022-09-01T13:28:10;24.70;48.70
58993;DHT22;44782;0.000;0.000;2022-09-01T13:30:27;24.70;48.80
58993;DHT22;44782;0.000;0.000;2022-09-01T13:32:44;24.70;48.80
58993;DHT22;44782;0.000;0.000;2022-09-01T13:35:00;24.70;48.80
58993;DHT22;44782;0.000;0.000;2022-09-01T13:37:16;24.70;48.80
58993;DHT22;44782;0.000;0.000;2022-09-01T13:39:32;24.70;48.80
58993;DHT22;44782;0.000;0.000;2022-09-01T13:41:48;24.70;48.80
58993;DHT22;44782;0.000;0.000;2022-09-01T13:44:03;24.70;48.80
58993;DHT22;44782;0.000;0.000;2022-09-01T13:46:19;24.70;48.80
58993;DHT22;44782;0.000;0.000;2022-09-01T13:48:35;24.70;48.80
58993;DHT22;44782;0.000;0.000;2022-09-01T13:50:51;24.70;48.80
58993;DHT22;44782;0.000;0.000;2022-09-01T13:53:09;24.70;48.80
58993;DHT22;44782;0.000;0.000;2022-09-01T13:55:30;24.70;48.80
58993;DHT22;44782;0.000;0.000;2022-09-01T13:57:46;24.70;48.70
58993;DHT22;44782;0.000;0.000;2022-09-01T14:00:05;24.70;48.80
58993;DHT22;44782;0.000;0.000;2022-09-01T14:02:21;24.70;48.80
58993;DHT22;44782;0.000;0.000;2022-09-01T14:04:36;24.70;48.80
58993;DHT22;44782;0.000;0.000;2022-09-01T14:06:52;24.70;48.80
58993;DHT22;44782;0.000;0.000;2022-09-01T14:09:11;24.70;48.80
58993;DHT22;44782;0.000;0.000;2022-09-01T14:11:27;24.70;48.80
58993;DHT22;44782;0.000;0.000;2022-09-01T14:13:43;24.70;48.80
58993;DHT22;44782;0.000;0.000;2022-09-01T14:16:00;24.70;48.80
58993;DHT22;44782;0.000;0.000;2022-09-01T14:18:16;24.80;48.80
58993;DHT22;44782;0.000;0.000;2022-09-01T14:20:36;24.80;48.80
58993;DHT22;44782;0.000;0.000;2022-09-01T14:22:53;24.80;48.80
58993;DHT22;44782;0.000;0.000;2022-09-01T14:25:11;24.80;48.80
58993;DHT22;44782;0.000;0.000;2022-09-01T14:27:27;24.80;48.80
58993;DHT22;44782;0.000;0.000;2022-09-01T14:29:46;24.80;48.80
58993;DHT22;44782;0.000;0.000;2022-09-01T14:32:02;24.80;48.80
58993;DHT22;44782;0.000;0.000;2022-09-01T14:34:18;24.80;48.80
58993;DHT22;44782;0.000;0.000;2022-09-01T14:36:34;24.80;48.80
58993;DHT22;44782;0.000;0.000;2022-09-01T14:38:50;24.80;48.80
58993;DHT22;44782;0.000;0.000;2022-09-01T14:41:06;24.80;48.70
58993;DHT22;44782;0.000;0.000;2022-09-01T14:43:21;24.80;48.80
58993;DHT22;44782;0.000;0.000;2022-09-01T14:45:37;24.80;48.80
58993;DHT22;44782;0.000;0.000;2022-09-01T14:47:54;24.80;48.80
58993;DHT22;44782;0.000;0.000;2022-09-01T14:50:11;24.80;48.70
58993;DHT22;44782;0.000;0.000;2022-09-01T14:52:26;24.80;48.70
58993;DHT22;44782;0.000;0.000;2022-09-01T14:54:42;24.80;48.70
58993;DHT22;44782;0.000;0.000;2022-09-01T14:56:58;24.90;48.80
58993;DHT22;44782;0.000;0.000;2022-09-01T14:59:14;24.80;48.70
58993;DHT22;44782;0.000;0.000;2022-09-01T15:01:29;24.90;48.70
58993;DHT22;44782;0.000;0.000;2022-09-01T15:03:46;24.90;48.70
58993;DHT22;44782;0.000;0.000;2022-09-01T15:06:02;24.80;48.60
58993;DHT22;44782;0.000;0.000;2022-09-01T15:08:19;24.90;48.70
58993;DHT22;44782;0.000;0.000;2022-09-01T15:10:35;24.90;48.70
58993;DHT22;44782;0.000;0.000;2022-09-01T15:12:55;24.90;48.70
58993;DHT22;44782;0.000;0.000;2022-09-01T15:15:11;24.90;48.60
58993;DHT22;44782;0.000;0.000;2022-09-01T15:17:27;24.90;48.60
58993;DHT22;44782;0.000;0.000;2022-09-01T15:19:43;24.90;49.30
58993;DHT22;44782;0.000;0.000;2022-09-01T15:21:59;24.90;48.60
58993;DHT22;44782;0.000;0.000;2022-09-01T15:24:15;24.90;48.60
58993;DHT22;44782;0.000;0.000;2022-09-01T15:26:33;24.90;48.60
58993;DHT22;44782;0.000;0.000;2022-09-01T15:28:49;24.90;48.60
58993;DHT22;44782;0.000;0.000;2022-09-01T15:31:05;24.90;48.70
58993;DHT22;44782;0.000;0.000;2022-09-01T15:33:21;24.90;48.70
58993;DHT22;44782;0.000;0.000;2022-09-01T15:35:37;24.90;48.60
58993;DHT22;44782;0.000;0.000;2022-09-01T15:37:52;24.90;48.60
58993;DHT22;44782;0.000;0.000;2022-09-01T15:40:10;24.90;48.60
58993;DHT22;44782;0.000;0.000;2022-09-01T15:42:26;24.90;48.70
58993;DHT22;44782;0.000;0.000;2022-09-01T15:44:41;24.90;48.60
58993;DHT22;44782;0.000;0.000;2022-09-01T15:46:57;24.90;48.60
58993;DHT22;44782;0.000;0.000;2022-09-01T15:49:13;24.90;48.60
58993;DHT22;44782;0.000;0.000;2022-09-01T15:53:51;24.90;48.60
58993;DHT22;44782;0.000;0.000;2022-09-01T15:56:07;24.90;48.60
58993;DHT22;44782;0.000;0.000;2022-09-01T15:58:23;24.90;48.60
58993;DHT22;44782;0.000;0.000;2022-09-01T16:00:40;24.90;48.60
58993;DHT22;44782;0.000;0.000;2022-09-01T16:02:56;24.90;48.60
58993;DHT22;44782;0.000;0.000;2022-09-01T16:05:16;24.90;48.60
58993;DHT22;44782;0.000;0.000;2022-09-01T16:07:32;24.90;48.60
58993;DHT22;44782;0.000;0.000;2022-09-01T16:09:47;24.90;48.60
58993;DHT22;44782;0.000;0.000;2022-09-01T16:12:03;24.90;48.60
58993;DHT22;44782;0.000;0.000;2022-09-01T16:14:20;24.90;48.60
58993;DHT22;44782;0.000;0.000;2022-09-01T16:16:59;24.90;48.70
58993;DHT22;44782;0.000;0.000;2022-09-01T16:22:29;24.90;48.70
58993;DHT22;44782;0.000;0.000;2022-09-01T16:24:49;24.90;48.60
58993;DHT22;44782;0.000;0.000;2022-09-01T16:27:08;24.90;48.70
58993;DHT22;44782;0.000;0.000;2022-09-01T16:31:52;24.90;48.70
58993;DHT22;44782;0.000;0.000;2022-09-01T16:34:15;24.90;48.70
58993;DHT22;44782;0.000;0.000;2022-09-01T16:47:29;24.90;48.70
58993;DHT22;44782;0.000;0.000;2022-09-01T16:50:08;24.90;48.80
58993;DHT22;44782;0.000;0.000;2022-09-01T16:52:27;24.90;48.80
58993;DHT22;44782;0.000;0.000;2022-09-01T16:55:24;24.90;48.80
58993;DHT22;44782;0.000;0.000;2022-09-01T16:57:56;24.90;48.80
58993;DHT22;44782;0.000;0.000;2022-09-01T17:00:14;24.90;48.90
58993;DHT22;44782;0.000;0.000;2022-09-01T17:05:00;24.90;48.80
58993;DHT22;44782;0.000;0.000;2022-09-01T17:15:09;25.00;49.00
58993;DHT22;44782;0.000;0.000;2022-09-01T17:17:43;25.00;48.90
58993;DHT22;44782;0.000;0.000;2022-09-01T17:20:00;25.00;48.90
58993;DHT22;44782;0.000;0.000;2022-09-01T17:22:18;25.00;49.00
58993;DHT22;44782;0.000;0.000;2022-09-01T17:24:43;25.00;48.90
58993;DHT22;44782;0.000;0.000;2022-09-01T17:27:02;25.00;48.90
58993;DHT22;44782;0.000;0.000;2022-09-01T17:29:27;25.00;48.90
58993;DHT22;44782;0.000;0.000;2022-09-01T17:32:01;25.00;48.90
58993;DHT22;44782;0.000;0.000;2022-09-01T17:34:27;25.00;48.90
58993;DHT22;44782;0.000;0.000;2022-09-01T17:39:11;25.00;48.90
58993;DHT22;44782;0.000;0.000;2022-09-01T17:44:49;25.00;48.90
58993;DHT22;44782;0.000;0.000;2022-09-01T17:47:47;25.00;48.90
58993;DHT22;44782;0.000;0.000;2022-09-01T17:52:54;24.90;48.90
58993;DHT22;44782;0.000;0.000;2022-09-01T17:55:30;25.00;49.10
58993;DHT22;44782;0.000;0.000;2022-09-01T18:05:25;25.00;49.50
58993;DHT22;44782;0.000;0.000;2022-09-01T18:10:20;25.00;49.60
58993;DHT22;44782;0.000;0.000;2022-09-01T18:12:39;25.00;49.50
58993;DHT22;44782;0.000;0.000;2022-09-01T18:15:08;25.00;49.40
58993;DHT22;44782;0.000;0.000;2022-09-01T18:17:33;25.00;50.20
58993;DHT22;44782;0.000;0.000;2022-09-01T18:20:01;25.00;49.50
58993;DHT22;44782;0.000;0.000;2022-09-01T18:22:20;25.00;49.50
58993;DHT22;44782;0.000;0.000;2022-09-01T18:24:56;25.00;49.40
58993;DHT22;44782;0.000;0.000;2022-09-01T18:27:13;25.00;49.50
58993;DHT22;44782;0.000;0.000;2022-09-01T18:29:28;25.00;49.50
58993;DHT22;44782;0.000;0.000;2022-09-01T18:32:25;25.00;49.50
58993;DHT22;44782;0.000;0.000;2022-09-01T18:39:58;25.00;49.60
58993;DHT22;44782;0.000;0.000;2022-09-01T18:42:31;25.00;49.50
58993;DHT22;44782;0.000;0.000;2022-09-01T18:48:04;25.00;49.80
58993;DHT22;44782;0.000;0.000;2022-09-01T18:52:48;25.00;49.70
58993;DHT22;44782;0.000;0.000;2022-09-01T19:01:06;25.00;49.70
58993;DHT22;44782;0.000;0.000;2022-09-01T19:18:54;25.00;49.80
58993;DHT22;44782;0.000;0.000;2022-09-01T19:21:38;25.00;49.80
58993;DHT22;44782;0.000;0.000;2022-09-01T19:23:58;25.00;49.70
58993;DHT22;44782;0.000;0.000;2022-09-01T19:26:21;25.00;49.40
58993;DHT22;44782;0.000;0.000;2022-09-01T19:28:45;25.00;49.20
58993;DHT22;44782;0.000;0.000;2022-09-01T19:31:30;25.00;48.80
58993;DHT22;44782;0.000;0.000;2022-09-01T19:33:58;25.00;48.50
58993;DHT22;44782;0.000;0.000;2022-09-01T19:36:40;24.90;48.20
58993;DHT22;44782;0.000;0.000;2022-09-01T19:38:54;24.90;47.90
58993;DHT22;44782;0.000;0.000;2022-09-01T19:41:35;24.90;47.90
58993;DHT22;44782;0.000;0.000;2022-09-01T19:44:01;24.90;47.10
58993;DHT22;44782;0.000;0.000;2022-09-01T19:46:30;24.90;47.40
58993;DHT22;44782;0.000;0.000;2022-09-01T19:51:45;24.90;46.80
58993;DHT22;44782;0.000;0.000;2022-09-01T19:54:12;24.90;46.70
58993;DHT22;44782;0.000;0.000;2022-09-01T19:56:41;24.90;46.70
58993;DHT22;44782;0.000;0.000;2022-09-01T20:01:41;24.90;47.30
58993;DHT22;44782;0.000;0.000;2022-09-01T20:04:02;24.90;47.20
58993;DHT22;44782;0.000;0.000;2022-09-01T20:06:33;24.80;47.30
58993;DHT22;44782;0.000;0.000;2022-09-01T20:13:57;24.80;47.20
58993;DHT22;44782;0.000;0.000;2022-09-01T20:16:34;24.90;47.40
58993;DHT22;44782;0.000;0.000;2022-09-01T20:19:07;24.90;47.50
58993;DHT22;44782;0.000;0.000;2022-09-01T20:21:25;24.80;47.20
58993;DHT22;44782;0.000;0.000;2022-09-01T20:23:43;24.90;47.30
58993;DHT22;44782;0.000;0.000;2022-09-01T20:26:11;24.90;47.30
58993;DHT22;44782;0.000;0.000;2022-09-01T20:29:16;24.90;47.10
58993;DHT22;44782;0.000;0.000;2022-09-01T20:31:29;24.90;47.30
58993;DHT22;44782;0.000;0.000;2022-09-01T20:33:51;24.90;47.30
58993;DHT22;44782;0.000;0.000;2022-09-01T20:36:20;24.90;47.40
58993;DHT22;44782;0.000;0.000;2022-09-01T20:38:51;24.90;47.40
58993;DHT22;44782;0.000;0.000;2022-09-01T20:41:40;24.90;47.60
58993;DHT22;44782;0.000;0.000;2022-09-01T20:44:02;24.90;47.60
58993;DHT22;44782;0.000;0.000;2022-09-01T20:46:20;24.90;47.70
58993;DHT22;44782;0.000;0.000;2022-09-01T20:48:40;25.00;47.80
58993;DHT22;44782;0.000;0.000;2022-09-01T20:51:17;25.00;47.70
58993;DHT22;44782;0.000;0.000;2022-09-01T20:53:57;25.00;47.70
58993;DHT22;44782;0.000;0.000;2022-09-01T20:58:46;25.00;47.90
58993;DHT22;44782;0.000;0.000;2022-09-01T21:05:51;25.00;48.00
58993;DHT22;44782;0.000;0.000;2022-09-01T21:11:41;25.00;48.00
58993;DHT22;44782;0.000;0.000;2022-09-01T21:16:45;25.00;48.20
58993;DHT22;44782;0.000;0.000;2022-09-01T21:19:30;25.00;48.20
58993;DHT22;44782;0.000;0.000;2022-09-01T21:22:09;25.10;48.20
58993;DHT22;44782;0.000;0.000;2022-09-01T21:24:25;25.10;48.30
58993;DHT22;44782;0.000;0.000;2022-09-01T21:26:41;25.10;48.40
58993;DHT22;44782;0.000;0.000;2022-09-01T21:28:58;25.10;48.30
58993;DHT22;44782;0.000;0.000;2022-09-01T21:31:19;25.10;48.40
58993;DHT22;44782;0.000;0.000;2022-09-01T21:33:35;25.10;48.50
58993;DHT22;44782;0.000;0.000;2022-09-01T21:35:51;25.10;48.40
58993;DHT22;44782;0.000;0.000;2022-09-01T21:38:07;25.10;48.40
58993;DHT22;44782;0.000;0.000;2022-09-01T21:40:24;25.10;48.40
58993;DHT22;44782;0.000;0.000;2022-09-01T21:44:59;25.10;48.50
58993;DHT22;44782;0.000;0.000;2022-09-01T21:47:16;25.10;48.40
58993;DHT22;44782;0.000;0.000;2022-09-01T21:49:31;25.10;48.50
58993;DHT22;44782;0.000;0.000;2022-09-01T21:51:47;25.10;48.50
58993;DHT22;44782;0.000;0.000;2022-09-01T21:54:03;25.10;48.50
58993;DHT22;44782;0.000;0.000;2022-09-01T21:56:19;25.10;48.50
58993;DHT22;44782;0.000;0.000;2022-09-01T21:58:38;25.10;48.50
58993;DHT22;44782;0.000;0.000;2022-09-01T22:00:53;25.10;48.40
58993;DHT22;44782;0.000;0.000;2022-09-01T22:03:12;25.10;48.50
58993;DHT22;44782;0.000;0.000;2022-09-01T22:05:28;25.10;48.50
58993;DHT22;44782;0.000;0.000;2022-09-01T22:07:45;25.10;48.50
58993;DHT22;44782;0.000;0.000;2022-09-01T22:10:01;25.10;48.50
58993;DHT22;44782;0.000;0.000;2022-09-01T22:12:17;25.10;48.50
58993;DHT22;44782;0.000;0.000;2022-09-01T22:14:32;25.10;48.50
58993;DHT22;44782;0.000;0.000;2022-09-01T22:16:48;25.00;48.40
58993;DHT22;44782;0.000;0.000;2022-09-01T22:19:04;25.00;48.40
58993;DHT22;44782;0.000;0.000;2022-09-01T22:21:20;25.10;48.50
58993;DHT22;44782;0.000;0.000;2022-09-01T22:23:36;25.00;48.40
58993;DHT22;44782;0.000;0.000;2022-09-01T22:25:52;25.00;48.40
58993;DHT22;44782;0.000;0.000;2022-09-01T22:28:08;25.00;48.30
58993;DHT22;44782;0.000;0.000;2022-09-01T22:30:24;25.00;48.40
58993;DHT22;44782;0.000;0.000;2022-09-01T22:32:40;25.00;48.40
58993;DHT22;44782;0.000;0.000;2022-09-01T22:35:01;25.00;48.40
58993;DHT22;44782;0.000;0.000;2022-09-01T22:37:17;25.00;48.40
58993;DHT22;44782;0.000;0.000;2022-09-01T22:39:33;25.00;48.40
58993;DHT22;44782;0.000;0.000;2022-09-01T22:41:49;25.00;48.40
58993;DHT22;44782;0.000;0.000;2022-09-01T22:44:05;25.00;48.40
58993;DHT22;44782;0.000;0.000;2022-09-01T22:46:21;25.00;48.40
58993;DHT22;44782;0.000;0.000;2022-09-01T22:48:37;25.00;48.40
58993;DHT22;44782;0.000;0.000;2022-09-01T22:50:53;25.00;48.30
58993;DHT22;44782;0.000;0.000;2022-09-01T22:53:09;25.00;48.40
58993;DHT22;44782;0.000;0.000;2022-09-01T22:55:25;25.00;48.40